• Join FlightAware (Why Join?)
  • Login
  • US Flag 
03:22PM EDT


 

Airport Tracker/Info


-or-


 

Live Flight TrackerFlight Track Log ✈ XOJ552 ✈ 02-May-2013 ✈ KDAL - KLEX

Flight Track Log - Related Links

Times and Time Zones

All times are in EDT time to prevent confusion due to time zone crossing. See the XOJ552 flight status page for this flight to view local times or setup timezone preferences in your user account.

Time Position Orientation Groundspeed Altitude Reporting Facility
EDT Latitude Longitude Course Direction KTS MPH feet Rate Location/Type
08:45AM 32.8667 -96.8500 308° West 144 166 1,600  Level Dallas / Fort Worth TRACON
08:46AM 32.9000 -96.9000 308° West 253 291 4,400 2,520 Climbing Dallas / Fort Worth TRACON
08:47AM 32.9667 -96.9167 348° North 223 257 6,900 2,520 Climbing Dallas / Fort Worth TRACON
08:49AM 32.9756 -96.7300 87° East 284 327 12,400 2,580 Climbing Fort Worth Center
08:50AM 32.9731 -96.6383 92° East 304 350 14,800 3,000 Climbing Fort Worth Center
08:51AM 32.9719 -96.4775 90° East 371 427 18,500 3,600 Climbing Fort Worth Center
08:52AM 32.9728 -96.3461 90° East 402 463 22,100 2,220 Climbing Fort Worth Center
08:53AM 32.9883 -96.2072 82° East 407 468 23,000 1,020 Climbing Fort Worth Center
08:54AM 33.0078 -96.0633 81° East 432 497 24,200 1,800 Climbing Fort Worth Center
08:55AM 33.0269 -95.9219 81° East 432 497 26,700 2,700 Climbing Fort Worth Center
08:56AM 33.0481 -95.7753 80° East 443 510 29,600 2,100 Climbing Fort Worth Center
08:57AM 33.0669 -95.6261 81° East 449 517 31,000 660 Climbing Fort Worth Center
08:58AM 33.0944 -95.4942 76° East 456 525 31,000  Level Fort Worth Center
08:59AM 33.1400 -95.3469 70° East 456 525 31,000  Level Fort Worth Center
09:00AM 33.1833 -95.1994 71° East 462 532 31,000  Level Fort Worth Center
09:01AM 33.2267 -95.0542 70° East 467 537 31,000 480 Level Fort Worth Center
09:02AM 33.2678 -94.9142 71° East 462 532 32,000 1,440 Climbing Fort Worth Center
09:03AM 33.3108 -94.7686 70° East 457 526 33,900 1,920 Climbing Fort Worth Center
09:04AM 33.3536 -94.6256 70° East 452 520 35,900 1,860 Climbing Fort Worth Center
09:05AM 33.3983 -94.4825 69° East 452 520 37,700 1,680 Climbing Fort Worth Center
09:06AM 33.4408 -94.3342 71° East 452 520 39,300 1,320 Climbing Fort Worth Center
09:07AM 33.4850 -94.1883 70° East 452 520 40,400 840 Climbing Fort Worth Center
09:08AM 33.5356 -94.0419 67° East 458 527 41,000 300 Climbing Fort Worth Center
09:09AM 33.5878 -93.8953 67° East 463 533 41,000  Level Fort Worth Center
09:10AM 33.6481 -93.7381 65° Northeast 469 540 41,000  Level Fort Worth Center
09:12AM 33.7344 -93.5119 65° Northeast 465 535 41,000  Level Memphis Center
09:13AM 33.7900 -93.3689 65° Northeast 465 535 41,000  Level Memphis Center
09:14AM 33.8456 -93.2208 66° East 471 542 41,000  Level Memphis Center
09:15AM 33.9011 -93.0750 65° Northeast 476 548 41,000  Level Memphis Center
09:16AM 33.9542 -92.9339 66° East 471 542 41,000  Level Memphis Center
09:17AM 34.0072 -92.7903 66° East 471 542 41,000  Level Memphis Center
09:18AM 34.0619 -92.6464 65° Northeast 471 542 41,000  Level Memphis Center
09:19AM 34.1169 -92.4997 66° East 471 542 41,000  Level Memphis Center
09:20AM 34.1714 -92.3556 65° Northeast 471 542 41,000  Level Memphis Center
09:21AM 34.2236 -92.2136 66° East 471 542 41,000  Level Memphis Center
09:22AM 34.2758 -92.0689 66° East 471 542 41,000  Level Memphis Center
09:23AM 34.3278 -91.9267 66° East 471 542 41,000  Level Memphis Center
09:24AM 34.3775 -91.7814 67° East 466 536 41,000  Level Memphis Center
09:25AM 34.4292 -91.6439 65° Northeast 461 531 41,000  Level Memphis Center
09:26AM 34.4825 -91.5036 65° Northeast 456 525 41,000  Level Memphis Center
09:27AM 34.5339 -91.3606 66° East 455 524 41,000  Level Memphis Center
09:28AM 34.5831 -91.2225 67° East 455 524 41,000  Level Memphis Center
09:29AM 34.6381 -91.0689 66° East 455 524 41,000  Level Memphis Center
09:30AM 34.6869 -90.9253 67° East 455 524 41,000  Level Memphis Center
09:31AM 34.7417 -90.7892 64° Northeast 450 518 41,000  Level Memphis Center
09:32AM 34.8108 -90.6606 57° Northeast 450 518 41,000  Level Memphis Center
09:33AM 34.8800 -90.5344 56° Northeast 455 524 41,000  Level Memphis Center
09:34AM 34.9511 -90.4003 57° Northeast 460 529 41,000  Level Memphis Center
09:35AM 35.0219 -90.2708 56° Northeast 460 529 41,000  Level Memphis Center
09:36AM 35.0906 -90.1389 58° Northeast 460 529 41,000  Level Memphis Center
09:37AM 35.1528 -90.0192 58° Northeast 460 529 41,000  Level Memphis Center
09:38AM 35.2233 -89.8869 57° Northeast 460 529 41,000  Level Memphis Center
09:39AM 35.2917 -89.7542 58° Northeast 460 529 41,000  Level Memphis Center
09:40AM 35.3658 -89.6086 58° Northeast 460 529 41,000  Level Memphis Center
09:41AM 35.4319 -89.4753 59° Northeast 460 529 41,000  Level Memphis Center
09:42AM 35.5017 -89.3394 58° Northeast 460 529 41,000  Level Memphis Center
09:43AM 35.5714 -89.2083 57° Northeast 460 529 41,000  Level Memphis Center
09:44AM 35.6389 -89.0747 58° Northeast 460 529 41,000  Level Memphis Center
09:45AM 35.6961 -88.9536 60° Northeast 460 529 41,000 -480 Level Memphis Center
09:46AM 35.7633 -88.8194 58° Northeast 455 524 40,100 -1,020 Descending Memphis Center
09:47AM 35.8325 -88.6850 58° Northeast 460 529 39,000 -600 Descending Memphis Center
09:48AM 35.8994 -88.5556 57° Northeast 460 529 39,000  Level Memphis Center
09:49AM 35.9683 -88.4181 58° Northeast 460 529 39,000  Level Memphis Center
09:50AM 36.0347 -88.2831 59° Northeast 460 529 39,000  Level Memphis Center
09:51AM 36.1056 -88.1450 58° Northeast 460 529 39,000  Level Memphis Center
09:52AM 36.1797 -87.9964 58° Northeast 460 529 39,000  Level Memphis Center
09:53AM 36.2461 -87.8608 59° Northeast 473 544 39,000  Level Memphis Center
09:54AM 36.3181 -87.7169 58° Northeast 473 544 39,000 -240 Level Memphis Center
09:55AM 36.3758 -87.5964 59° Northeast 473 544 38,600 -900 Descending Memphis Center
09:56AM 36.4436 -87.4575 59° Northeast 473 544 37,300 -840 Descending Memphis Center
09:57AM 36.5028 -87.3158 63° Northeast 468 539 37,000 -180 Descending Memphis Center
09:58AM 36.5575 -87.1769 64° Northeast 457 526 37,000  Level Memphis Center
09:59AM 36.6267 -87.0242 61° Northeast 452 520 37,000  Level Memphis Center
10:00AM 36.7089 -86.9069 49° Northeast 452 520 37,000 -360 Level Memphis Center
10:01AM 36.7908 -86.7869 50° Northeast 452 520 36,300 -1,020 Descending Memphis Center
10:02AM 36.8578 -86.6517 58° Northeast 457 526 35,000 -660 Descending Memphis Center
10:03AM 36.9033 -86.5094 68° East 448 516 35,000 -840 Level Memphis Center
10:05AM 36.9847 -86.2692 67° East 448 516 32,800 -1,680 Descending Indianapolis Center
10:06AM 37.0322 -86.1217 68° East 452 520 30,500 -2,280 Descending Indianapolis Center
10:07AM 37.0811 -85.9711 68° East 459 528 28,100 -2,220 Descending Indianapolis Center
10:08AM 37.1294 -85.8228 68° East 457 526 26,000 -2,040 Descending Indianapolis Center
10:09AM 37.1756 -85.6781 68° East 448 516 24,000 -1,980 Descending Indianapolis Center
10:10AM 37.2208 -85.5442 67° East 421 484 22,000 -2,040 Descending Indianapolis Center
10:11AM 37.2653 -85.4022 68° East 390 449 19,900 -2,040 Descending Indianapolis Center
10:12AM 37.3050 -85.2769 68° East 384 442 17,900 -1,320 Descending Indianapolis Center
10:13AM 37.3442 -85.1556 68° East 376 433 17,200 -900 Descending Indianapolis Center
10:14AM 37.3822 -85.0358 68° East 368 423 16,100 -1,620 Descending Indianapolis Center
10:15AM 37.4253 -84.8958 69° East 366 421 13,900 -2,040 Descending Indianapolis Center
10:16AM 37.4628 -84.7769 68° East 365 420 11,900 -1,740 Descending Indianapolis Center
10:17AM 37.5325 -84.7164 35° Northeast 318 366 10,400 -1,680 Descending Indianapolis Center
10:18AM 37.6136 -84.6825 18° North 307 353 8,500 -1,620 Descending Indianapolis Center
10:19AM 37.6914 -84.6514 18° North 297 342 7,100 -780 Descending Indianapolis Center
10:20AM 37.7678 -84.6164 20° North 293 337 7,000 -420 Descending Indianapolis Center
10:21AM 37.8586 -84.5789 18° North 292 336 6,300 -1,260 Descending Indianapolis Center
10:22AM 37.9317 -84.5431 21° North 287 330 4,500 -1,380 Descending Indianapolis Center
10:23AM 37.9958 -84.4967 30° Northeast 277 319 3,500 -720 Descending Indianapolis Center
10:24AM 38.0481 -84.4817 13° North 243 280 3,100 -600 Descending Indianapolis Center
10:25AM 38.0767 -84.5344 305° West 196 226 2,300 -540 Descending Indianapolis Center
10:26AM 38.0944 -84.5911 292° West 183 211 2,100 -240 Descending Indianapolis Center
10:28AM 38.0333 -84.6000 270° West  Level FlightAware Approximate